sensor_id;sensor_type;location;lat;lon;timestamp;pressure;altitude;pressure_sealevel;temperature;humidity
13765;BME280;6953;48.810;9.204;2023-07-29T00:01:15;98364.22;;;19.62;100.00
13765;BME280;6953;48.810;9.204;2023-07-29T00:03:40;98330.31;;;19.64;100.00
13765;BME280;6953;48.810;9.204;2023-07-29T00:06:06;98259.75;;;19.23;100.00
13765;BME280;6953;48.810;9.204;2023-07-29T00:08:31;98089.81;;;18.29;100.00
13765;BME280;6953;48.810;9.204;2023-07-29T00:10:56;98242.81;;;19.24;100.00
13765;BME280;6953;48.810;9.204;2023-07-29T00:13:22;98318.25;;;19.69;100.00
13765;BME280;6953;48.810;9.204;2023-07-29T00:15:47;98291.38;;;19.63;100.00
13765;BME280;6953;48.810;9.204;2023-07-29T00:18:12;98302.44;;;19.68;100.00
13765;BME280;6953;48.810;9.204;2023-07-29T00:20:38;98301.00;;;19.73;100.00
13765;BME280;6953;48.810;9.204;2023-07-29T00:23:03;98315.91;;;19.66;100.00
13765;BME280;6953;48.810;9.204;2023-07-29T00:25:29;98307.88;;;19.76;100.00
13765;BME280;6953;48.810;9.204;2023-07-29T00:27:55;98301.41;;;19.78;100.00
13765;BME280;6953;48.810;9.204;2023-07-29T00:30:21;98072.75;;;18.41;100.00
13765;BME280;6953;48.810;9.204;2023-07-29T00:32:46;98303.22;;;19.78;100.00
13765;BME280;6953;48.810;9.204;2023-07-29T00:35:12;98309.56;;;19.77;100.00
13765;BME280;6953;48.810;9.204;2023-07-29T00:37:37;98367.13;;;19.78;100.00
13765;BME280;6953;48.810;9.204;2023-07-29T00:40:05;98309.22;;;19.80;100.00
13765;BME280;6953;48.810;9.204;2023-07-29T00:42:33;98304.06;;;19.78;100.00
13765;BME280;6953;48.810;9.204;2023-07-29T00:44:59;98287.16;;;19.70;100.00
13765;BME280;6953;48.810;9.204;2023-07-29T00:47:25;98275.13;;;19.66;100.00
13765;BME280;6953;48.810;9.204;2023-07-29T00:49:51;98287.97;;;19.70;100.00
13765;BME280;6953;48.810;9.204;2023-07-29T00:52:16;98225.50;;;19.38;100.00
13765;BME280;6953;48.810;9.204;2023-07-29T00:54:42;98296.06;;;19.78;100.00
13765;BME280;6953;48.810;9.204;2023-07-29T00:57:13;98070.09;;;18.41;100.00
13765;BME280;6953;48.810;9.204;2023-07-29T00:59:40;98301.41;;;19.78;100.00
13765;BME280;6953;48.810;9.204;2023-07-29T01:02:06;98081.66;;;18.49;100.00
13765;BME280;6953;48.810;9.204;2023-07-29T01:04:31;98303.63;;;19.83;100.00
13765;BME280;6953;48.810;9.204;2023-07-29T01:07:18;98304.31;;;19.85;100.00
13765;BME280;6953;48.810;9.204;2023-07-29T01:09:54;98286.66;;;19.84;100.00
13765;BME280;6953;48.810;9.204;2023-07-29T01:12:41;98266.69;;;19.70;100.00
13765;BME280;6953;48.810;9.204;2023-07-29T01:15:24;98287.81;;;19.81;100.00
13765;BME280;6953;48.810;9.204;2023-07-29T01:17:57;98270.03;;;19.72;100.00
13765;BME280;6953;48.810;9.204;2023-07-29T01:20:25;98280.94;;;19.79;100.00
13765;BME280;6953;48.810;9.204;2023-07-29T01:22:50;98283.59;;;19.79;100.00
13765;BME280;6953;48.810;9.204;2023-07-29T01:25:16;98284.56;;;19.78;100.00
13765;BME280;6953;48.810;9.204;2023-07-29T01:27:44;98057.34;;;18.44;100.00
13765;BME280;6953;48.810;9.204;2023-07-29T01:30:10;98280.28;;;19.67;100.00
13765;BME280;6953;48.810;9.204;2023-07-29T01:32:41;98279.53;;;19.84;100.00
13765;BME280;6953;48.810;9.204;2023-07-29T01:38:12;98225.81;;;19.62;100.00
13765;BME280;6953;48.810;9.204;2023-07-29T01:40:39;98230.59;;;19.58;100.00
13765;BME280;6953;48.810;9.204;2023-07-29T01:43:05;98266.63;;;19.80;100.00
13765;BME280;6953;48.810;9.204;2023-07-29T01:45:33;98235.72;;;19.69;100.00
13765;BME280;6953;48.810;9.204;2023-07-29T01:48:03;98260.25;;;19.90;100.00
13765;BME280;6953;48.810;9.204;2023-07-29T01:50:29;98274.94;;;20.03;100.00
13765;BME280;6953;48.810;9.204;2023-07-29T01:52:54;98256.59;;;20.00;100.00
13765;BME280;6953;48.810;9.204;2023-07-29T01:55:19;98224.13;;;19.88;100.00
13765;BME280;6953;48.810;9.204;2023-07-29T01:57:44;98296.59;;;20.18;100.00
13765;BME280;6953;48.810;9.204;2023-07-29T02:00:10;98195.88;;;19.77;100.00
13765;BME280;6953;48.810;9.204;2023-07-29T02:02:36;98099.56;;;19.20;100.00
13765;BME280;6953;48.810;9.204;2023-07-29T02:05:01;98287.16;;;20.23;100.00
13765;BME280;6953;48.810;9.204;2023-07-29T02:07:26;98263.16;;;20.23;100.00
13765;BME280;6953;48.810;9.204;2023-07-29T02:09:52;98233.53;;;20.09;100.00
13765;BME280;6953;48.810;9.204;2023-07-29T02:12:18;98251.13;;;20.19;100.00
13765;BME280;6953;48.810;9.204;2023-07-29T02:14:43;98261.66;;;20.21;100.00
13765;BME280;6953;48.810;9.204;2023-07-29T02:17:10;98264.91;;;20.15;100.00
13765;BME280;6953;48.810;9.204;2023-07-29T02:19:35;98255.81;;;20.17;100.00
13765;BME280;6953;48.810;9.204;2023-07-29T02:22:00;98004.53;;;18.68;100.00
13765;BME280;6953;48.810;9.204;2023-07-29T02:24:26;98082.56;;;19.13;100.00
13765;BME280;6953;48.810;9.204;2023-07-29T02:26:51;98233.22;;;19.94;100.00
13765;BME280;6953;48.810;9.204;2023-07-29T02:29:16;98238.28;;;19.97;100.00
13765;BME280;6953;48.810;9.204;2023-07-29T02:31:41;98250.47;;;19.90;100.00
13765;BME280;6953;48.810;9.204;2023-07-29T02:34:09;98134.84;;;19.22;100.00
13765;BME280;6953;48.810;9.204;2023-07-29T02:36:34;98010.63;;;18.51;100.00
13765;BME280;6953;48.810;9.204;2023-07-29T02:38:59;98237.06;;;19.83;100.00
13765;BME280;6953;48.810;9.204;2023-07-29T02:41:25;98203.13;;;19.58;100.00
13765;BME280;6953;48.810;9.204;2023-07-29T02:43:50;98248.16;;;19.78;100.00
13765;BME280;6953;48.810;9.204;2023-07-29T02:46:16;98158.03;;;19.29;100.00
13765;BME280;6953;48.810;9.204;2023-07-29T02:48:42;98251.69;;;19.69;100.00
13765;BME280;6953;48.810;9.204;2023-07-29T02:51:08;97980.22;;;18.27;100.00
13765;BME280;6953;48.810;9.204;2023-07-29T02:53:33;98165.44;;;19.35;100.00
13765;BME280;6953;48.810;9.204;2023-07-29T02:56:01;98174.53;;;19.42;100.00
13765;BME280;6953;48.810;9.204;2023-07-29T02:58:27;98131.50;;;19.20;100.00
13765;BME280;6953;48.810;9.204;2023-07-29T03:00:52;98209.56;;;19.65;100.00
13765;BME280;6953;48.810;9.204;2023-07-29T03:03:17;98177.56;;;19.47;100.00
13765;BME280;6953;48.810;9.204;2023-07-29T03:05:48;98234.09;;;19.86;100.00
13765;BME280;6953;48.810;9.204;2023-07-29T03:08:13;98223.91;;;19.81;100.00
13765;BME280;6953;48.810;9.204;2023-07-29T03:10:38;98217.88;;;19.79;100.00
13765;BME280;6953;48.810;9.204;2023-07-29T03:13:03;98215.69;;;19.75;100.00
13765;BME280;6953;48.810;9.204;2023-07-29T03:15:29;98206.88;;;19.65;100.00
13765;BME280;6953;48.810;9.204;2023-07-29T03:17:54;98230.56;;;19.68;100.00
13765;BME280;6953;48.810;9.204;2023-07-29T03:20:20;98198.13;;;19.55;100.00
13765;BME280;6953;48.810;9.204;2023-07-29T03:22:45;98239.13;;;19.62;100.00
13765;BME280;6953;48.810;9.204;2023-07-29T03:25:11;98208.31;;;19.59;100.00
13765;BME280;6953;48.810;9.204;2023-07-29T03:27:36;98202.16;;;19.59;100.00
13765;BME280;6953;48.810;9.204;2023-07-29T03:30:03;98192.75;;;19.64;100.00
13765;BME280;6953;48.810;9.204;2023-07-29T03:32:28;98184.81;;;19.55;100.00
13765;BME280;6953;48.810;9.204;2023-07-29T03:34:54;98162.91;;;19.43;100.00
13765;BME280;6953;48.810;9.204;2023-07-29T03:37:19;98033.78;;;18.68;100.00
13765;BME280;6953;48.810;9.204;2023-07-29T03:39:45;98202.25;;;19.67;100.00
13765;BME280;6953;48.810;9.204;2023-07-29T03:42:10;98205.63;;;19.69;100.00
13765;BME280;6953;48.810;9.204;2023-07-29T03:44:35;98188.41;;;19.63;100.00
13765;BME280;6953;48.810;9.204;2023-07-29T03:47:01;97976.41;;;18.39;100.00
13765;BME280;6953;48.810;9.204;2023-07-29T03:49:26;97970.81;;;18.42;100.00
13765;BME280;6953;48.810;9.204;2023-07-29T03:51:51;98205.09;;;19.83;100.00
13765;BME280;6953;48.810;9.204;2023-07-29T03:54:17;98127.44;;;19.43;100.00
13765;BME280;6953;48.810;9.204;2023-07-29T03:56:42;98205.03;;;19.92;100.00
13765;BME280;6953;48.810;9.204;2023-07-29T03:59:07;98202.94;;;19.95;100.00
13765;BME280;6953;48.810;9.204;2023-07-29T04:01:32;98141.09;;;19.57;100.00
13765;BME280;6953;48.810;9.204;2023-07-29T04:03:58;98096.84;;;19.29;100.00
13765;BME280;6953;48.810;9.204;2023-07-29T04:06:24;98208.31;;;19.86;100.00
13765;BME280;6953;48.810;9.204;2023-07-29T04:08:50;97871.53;;;17.79;100.00
13765;BME280;6953;48.810;9.204;2023-07-29T04:11:15;98212.16;;;19.74;100.00
13765;BME280;6953;48.810;9.204;2023-07-29T04:13:41;98192.34;;;19.59;100.00
13765;BME280;6953;48.810;9.204;2023-07-29T04:16:07;98223.03;;;19.63;100.00
13765;BME280;6953;48.810;9.204;2023-07-29T04:18:32;97975.22;;;18.24;100.00
13765;BME280;6953;48.810;9.204;2023-07-29T04:20:58;98134.31;;;19.18;100.00
13765;BME280;6953;48.810;9.204;2023-07-29T04:23:23;98200.63;;;19.56;100.00
13765;BME280;6953;48.810;9.204;2023-07-29T04:25:48;98222.78;;;19.47;100.00
13765;BME280;6953;48.810;9.204;2023-07-29T04:28:15;98101.91;;;18.96;100.00
13765;BME280;6953;48.810;9.204;2023-07-29T04:30:40;98168.69;;;19.29;100.00
13765;BME280;6953;48.810;9.204;2023-07-29T04:33:05;97951.94;;;17.99;100.00
13765;BME280;6953;48.810;9.204;2023-07-29T04:35:31;98233.84;;;19.52;100.00
13765;BME280;6953;48.810;9.204;2023-07-29T04:37:56;98249.13;;;19.50;100.00
13765;BME280;6953;48.810;9.204;2023-07-29T04:40:21;98044.50;;;18.40;100.00
13765;BME280;6953;48.810;9.204;2023-07-29T04:42:48;97970.91;;;18.04;100.00
13765;BME280;6953;48.810;9.204;2023-07-29T04:45:13;98222.09;;;19.55;100.00
13765;BME280;6953;48.810;9.204;2023-07-29T04:47:39;98050.91;;;18.47;100.00
13765;BME280;6953;48.810;9.204;2023-07-29T04:50:04;98240.41;;;19.58;100.00
13765;BME280;6953;48.810;9.204;2023-07-29T04:52:30;98243.75;;;19.60;100.00
13765;BME280;6953;48.810;9.204;2023-07-29T04:54:55;98250.47;;;19.64;100.00
13765;BME280;6953;48.810;9.204;2023-07-29T04:57:20;98257.34;;;19.66;100.00
13765;BME280;6953;48.810;9.204;2023-07-29T04:59:46;98153.06;;;19.07;100.00
13765;BME280;6953;48.810;9.204;2023-07-29T05:02:11;98247.75;;;19.73;100.00
13765;BME280;6953;48.810;9.204;2023-07-29T05:04:36;98228.41;;;19.71;100.00
13765;BME280;6953;48.810;9.204;2023-07-29T05:07:02;98284.72;;;19.76;100.00
13765;BME280;6953;48.810;9.204;2023-07-29T05:09:27;98220.06;;;19.66;100.00
13765;BME280;6953;48.810;9.204;2023-07-29T05:11:52;98220.50;;;19.62;100.00
13765;BME280;6953;48.810;9.204;2023-07-29T05:14:18;98231.38;;;19.68;100.00
13765;BME280;6953;48.810;9.204;2023-07-29T05:16:43;98026.66;;;18.59;100.00
13765;BME280;6953;48.810;9.204;2023-07-29T05:19:09;97955.22;;;18.29;100.00
13765;BME280;6953;48.810;9.204;2023-07-29T05:21:34;98211.66;;;19.97;100.00
13765;BME280;6953;48.810;9.204;2023-07-29T05:23:59;98212.69;;;20.04;100.00
13765;BME280;6953;48.810;9.204;2023-07-29T05:26:25;98212.69;;;20.04;100.00
13765;BME280;6953;48.810;9.204;2023-07-29T05:28:50;98235.16;;;20.02;100.00
13765;BME280;6953;48.810;9.204;2023-07-29T05:31:16;98125.03;;;19.49;100.00
13765;BME280;6953;48.810;9.204;2023-07-29T05:33:41;98224.91;;;20.07;100.00
13765;BME280;6953;48.810;9.204;2023-07-29T05:36:06;98216.91;;;20.07;100.00
13765;BME280;6953;48.810;9.204;2023-07-29T05:38:31;98050.22;;;19.08;100.00
13765;BME280;6953;48.810;9.204;2023-07-29T05:40:57;98008.06;;;18.86;100.00
13765;BME280;6953;48.810;9.204;2023-07-29T05:43:24;98227.53;;;20.24;100.00
13765;BME280;6953;48.810;9.204;2023-07-29T05:45:49;98262.75;;;20.28;100.00
13765;BME280;6953;48.810;9.204;2023-07-29T05:48:15;98219.78;;;20.31;100.00
13765;BME280;6953;48.810;9.204;2023-07-29T05:50:40;98082.38;;;19.59;100.00
13765;BME280;6953;48.810;9.204;2023-07-29T05:53:05;98217.13;;;20.48;100.00
13765;BME280;6953;48.810;9.204;2023-07-29T05:55:30;98214.53;;;20.56;100.00
13765;BME280;6953;48.810;9.204;2023-07-29T05:57:56;98209.63;;;20.69;100.00
13765;BME280;6953;48.810;9.204;2023-07-29T06:00:22;98208.56;;;20.80;100.00
13765;BME280;6953;48.810;9.204;2023-07-29T06:02:48;98111.13;;;20.42;100.00
13765;BME280;6953;48.810;9.204;2023-07-29T06:05:13;97713.47;;;18.39;100.00
13765;BME280;6953;48.810;9.204;2023-07-29T06:07:38;98199.56;;;21.65;100.00
13765;BME280;6953;48.810;9.204;2023-07-29T06:10:09;98191.50;;;21.90;100.00
13765;BME280;6953;48.810;9.204;2023-07-29T06:12:36;98197.88;;;22.05;100.00
13765;BME280;6953;48.810;9.204;2023-07-29T06:15:02;98187.38;;;22.19;100.00
13765;BME280;6953;48.810;9.204;2023-07-29T06:17:27;98202.28;;;22.54;100.00
13765;BME280;6953;48.810;9.204;2023-07-29T06:19:52;98212.50;;;22.74;100.00
13765;BME280;6953;48.810;9.204;2023-07-29T06:22:18;97970.59;;;21.75;100.00
13765;BME280;6953;48.810;9.204;2023-07-29T06:24:43;98208.41;;;23.42;100.00
13765;BME280;6953;48.810;9.204;2023-07-29T06:27:08;98071.91;;;22.64;100.00
13765;BME280;6953;48.810;9.204;2023-07-29T06:29:34;98216.84;;;23.61;100.00
13765;BME280;6953;48.810;9.204;2023-07-29T06:31:59;98074.53;;;22.80;100.00
13765;BME280;6953;48.810;9.204;2023-07-29T06:34:24;98157.22;;;23.29;100.00
13765;BME280;6953;48.810;9.204;2023-07-29T06:36:50;98155.75;;;23.18;100.00
13765;BME280;6953;48.810;9.204;2023-07-29T06:39:15;98214.59;;;23.42;100.00
13765;BME280;6953;48.810;9.204;2023-07-29T06:41:40;98220.66;;;23.20;100.00
13765;BME280;6953;48.810;9.204;2023-07-29T06:44:05;98211.47;;;22.91;100.00
13765;BME280;6953;48.810;9.204;2023-07-29T06:46:31;98223.19;;;22.74;100.00
13765;BME280;6953;48.810;9.204;2023-07-29T06:48:56;98227.88;;;22.56;100.00
13765;BME280;6953;48.810;9.204;2023-07-29T06:51:22;98205.88;;;22.05;100.00
13765;BME280;6953;48.810;9.204;2023-07-29T06:53:47;98237.41;;;21.94;100.00
13765;BME280;6953;48.810;9.204;2023-07-29T06:56:12;98233.03;;;21.85;100.00
13765;BME280;6953;48.810;9.204;2023-07-29T06:58:38;98234.38;;;21.81;100.00
13765;BME280;6953;48.810;9.204;2023-07-29T07:01:03;98218.28;;;21.39;100.00
13765;BME280;6953;48.810;9.204;2023-07-29T07:03:28;98062.84;;;20.45;100.00
13765;BME280;6953;48.810;9.204;2023-07-29T07:05:54;98243.69;;;21.43;100.00
13765;BME280;6953;48.810;9.204;2023-07-29T07:08:19;98235.03;;;21.24;100.00
13765;BME280;6953;48.810;9.204;2023-07-29T07:10:46;98278.69;;;21.15;100.00
13765;BME280;6953;48.810;9.204;2023-07-29T07:13:12;98269.72;;;20.98;100.00
13765;BME280;6953;48.810;9.204;2023-07-29T07:15:37;98258.69;;;20.94;100.00
13765;BME280;6953;48.810;9.204;2023-07-29T07:18:02;98264.31;;;20.91;100.00
13765;BME280;6953;48.810;9.204;2023-07-29T07:20:28;98264.88;;;20.94;100.00
13765;BME280;6953;48.810;9.204;2023-07-29T07:22:53;98258.75;;;21.01;100.00
13765;BME280;6953;48.810;9.204;2023-07-29T07:25:19;98267.44;;;21.03;100.00
13765;BME280;6953;48.810;9.204;2023-07-29T07:27:44;98183.75;;;20.62;100.00
13765;BME280;6953;48.810;9.204;2023-07-29T07:30:10;98254.63;;;21.07;100.00
13765;BME280;6953;48.810;9.204;2023-07-29T07:32:35;98034.16;;;19.79;100.00
13765;BME280;6953;48.810;9.204;2023-07-29T07:35:01;98257.38;;;21.23;100.00
13765;BME280;6953;48.810;9.204;2023-07-29T07:37:26;98238.94;;;21.29;100.00
13765;BME280;6953;48.810;9.204;2023-07-29T07:39:52;98243.69;;;21.51;100.00
13765;BME280;6953;48.810;9.204;2023-07-29T07:42:17;98254.53;;;21.75;100.00
13765;BME280;6953;48.810;9.204;2023-07-29T07:44:43;98257.78;;;21.95;100.00
13765;BME280;6953;48.810;9.204;2023-07-29T07:47:08;98271.34;;;22.01;100.00
13765;BME280;6953;48.810;9.204;2023-07-29T07:49:33;97748.88;;;19.07;100.00
13765;BME280;6953;48.810;9.204;2023-07-29T07:51:58;98088.56;;;21.13;100.00
13765;BME280;6953;48.810;9.204;2023-07-29T07:54:24;98037.59;;;20.91;100.00
13765;BME280;6953;48.810;9.204;2023-07-29T07:56:49;98256.94;;;22.35;100.00
13765;BME280;6953;48.810;9.204;2023-07-29T07:59:14;98260.97;;;22.39;100.00
13765;BME280;6953;48.810;9.204;2023-07-29T08:01:40;98248.59;;;22.46;100.00
13765;BME280;6953;48.810;9.204;2023-07-29T08:04:06;98245.59;;;22.65;100.00
13765;BME280;6953;48.810;9.204;2023-07-29T08:06:32;98208.97;;;22.42;100.00
13765;BME280;6953;48.810;9.204;2023-07-29T08:08:58;98122.03;;;22.78;100.00
13765;BME280;6953;48.810;9.204;2023-07-29T08:11:24;98251.69;;;24.08;100.00
13765;BME280;6953;48.810;9.204;2023-07-29T08:13:52;98077.22;;;23.26;100.00
13765;BME280;6953;48.810;9.204;2023-07-29T08:16:17;98269.00;;;24.58;100.00
13765;BME280;6953;48.810;9.204;2023-07-29T08:18:43;98280.66;;;25.18;100.00
13765;BME280;6953;48.810;9.204;2023-07-29T08:21:09;98260.97;;;26.26;94.98
13765;BME280;6953;48.810;9.204;2023-07-29T08:23:35;98297.84;;;27.24;90.09
13765;BME280;6953;48.810;9.204;2023-07-29T08:26:05;98262.53;;;27.12;88.47
13765;BME280;6953;48.810;9.204;2023-07-29T08:28:32;98271.47;;;27.13;89.39
13765;BME280;6953;48.810;9.204;2023-07-29T08:30:58;98264.97;;;26.86;88.82
13765;BME280;6953;48.810;9.204;2023-07-29T08:33:23;98277.09;;;26.97;88.09
13765;BME280;6953;48.810;9.204;2023-07-29T08:35:49;98269.56;;;26.92;88.78
13765;BME280;6953;48.810;9.204;2023-07-29T08:38:14;98265.28;;;26.98;88.63
13765;BME280;6953;48.810;9.204;2023-07-29T08:40:48;98273.97;;;27.42;87.11
13765;BME280;6953;48.810;9.204;2023-07-29T08:43:16;98233.72;;;27.40;84.36
13765;BME280;6953;48.810;9.204;2023-07-29T08:45:44;98220.97;;;27.55;83.14
13765;BME280;6953;48.810;9.204;2023-07-29T08:48:10;98269.63;;;28.42;80.28
13765;BME280;6953;48.810;9.204;2023-07-29T08:50:36;98280.16;;;28.84;77.81
13765;BME280;6953;48.810;9.204;2023-07-29T08:53:05;98090.19;;;28.51;74.69
13765;BME280;6953;48.810;9.204;2023-07-29T08:55:32;98273.38;;;31.10;69.50
13765;BME280;6953;48.810;9.204;2023-07-29T08:57:58;98258.38;;;31.63;65.84
13765;BME280;6953;48.810;9.204;2023-07-29T09:00:25;98103.88;;;31.25;63.79
13765;BME280;6953;48.810;9.204;2023-07-29T09:02:51;98275.06;;;34.24;55.77
13765;BME280;6953;48.810;9.204;2023-07-29T09:05:16;98279.22;;;34.04;54.47
13765;BME280;6953;48.810;9.204;2023-07-29T09:07:42;98166.72;;;33.00;56.15
13765;BME280;6953;48.810;9.204;2023-07-29T09:10:09;98261.91;;;33.52;56.01
13765;BME280;6953;48.810;9.204;2023-07-29T09:12:36;98264.50;;;33.47;56.59
13765;BME280;6953;48.810;9.204;2023-07-29T09:15:01;98262.91;;;32.58;58.56
13765;BME280;6953;48.810;9.204;2023-07-29T09:17:31;98234.03;;;31.50;61.48
13765;BME280;6953;48.810;9.204;2023-07-29T09:19:56;98260.66;;;31.35;63.56
13765;BME280;6953;48.810;9.204;2023-07-29T09:22:22;98251.44;;;31.18;64.40
13765;BME280;6953;48.810;9.204;2023-07-29T09:24:47;98233.97;;;31.56;63.56
13765;BME280;6953;48.810;9.204;2023-07-29T09:27:26;98202.34;;;31.68;60.32
13765;BME280;6953;48.810;9.204;2023-07-29T09:29:52;98250.31;;;34.14;54.60
13765;BME280;6953;48.810;9.204;2023-07-29T09:32:21;98240.88;;;37.68;43.89
13765;BME280;6953;48.810;9.204;2023-07-29T09:34:47;98251.47;;;40.82;34.48
13765;BME280;6953;48.810;9.204;2023-07-29T09:37:31;98186.47;;;40.27;32.31
13765;BME280;6953;48.810;9.204;2023-07-29T09:39:57;98235.69;;;40.44;33.81
13765;BME280;6953;48.810;9.204;2023-07-29T09:42:22;98240.91;;;40.35;33.50
13765;BME280;6953;48.810;9.204;2023-07-29T09:44:49;98238.50;;;39.04;35.49
13765;BME280;6953;48.810;9.204;2023-07-29T09:47:22;98208.72;;;37.23;39.06
13765;BME280;6953;48.810;9.204;2023-07-29T09:49:49;98259.69;;;35.95;42.36
13765;BME280;6953;48.810;9.204;2023-07-29T09:52:19;98240.94;;;34.21;45.92
13765;BME280;6953;48.810;9.204;2023-07-29T09:54:45;98066.94;;;32.25;49.68
13765;BME280;6953;48.810;9.204;2023-07-29T09:57:13;98225.22;;;34.12;49.46
13765;BME280;6953;48.810;9.204;2023-07-29T09:59:39;98230.44;;;34.97;46.11
13765;BME280;6953;48.810;9.204;2023-07-29T10:02:04;98234.94;;;35.03;46.46
13765;BME280;6953;48.810;9.204;2023-07-29T10:04:33;98230.44;;;35.25;43.63
13765;BME280;6953;48.810;9.204;2023-07-29T10:06:59;98219.25;;;35.76;42.41
13765;BME280;6953;48.810;9.204;2023-07-29T10:09:25;98029.44;;;34.48;42.42
13765;BME280;6953;48.810;9.204;2023-07-29T10:11:51;98216.28;;;37.42;37.43
13765;BME280;6953;48.810;9.204;2023-07-29T10:14:18;98225.66;;;39.60;33.13
13765;BME280;6953;48.810;9.204;2023-07-29T10:16:46;98227.94;;;41.37;28.82
13765;BME280;6953;48.810;9.204;2023-07-29T10:19:11;98122.94;;;39.21;29.55
13765;BME280;6953;48.810;9.204;2023-07-29T10:21:41;98240.56;;;37.34;36.60
13765;BME280;6953;48.810;9.204;2023-07-29T10:24:15;98241.13;;;35.59;39.00
13765;BME280;6953;48.810;9.204;2023-07-29T10:26:43;98210.06;;;33.82;44.78
13765;BME280;6953;48.810;9.204;2023-07-29T10:29:12;98066.00;;;30.94;51.49
13765;BME280;6953;48.810;9.204;2023-07-29T10:31:39;98225.72;;;30.21;58.36
13765;BME280;6953;48.810;9.204;2023-07-29T10:34:05;98273.88;;;28.77;65.63
13765;BME280;6953;48.810;9.204;2023-07-29T10:36:31;98147.13;;;27.16;69.87
13765;BME280;6953;48.810;9.204;2023-07-29T10:38:56;98249.53;;;27.70;70.45
13765;BME280;6953;48.810;9.204;2023-07-29T10:41:22;98189.22;;;27.84;69.20
13765;BME280;6953;48.810;9.204;2023-07-29T10:43:47;98221.94;;;28.15;67.79
13765;BME280;6953;48.810;9.204;2023-07-29T10:46:22;98059.53;;;27.33;66.61
13765;BME280;6953;48.810;9.204;2023-07-29T10:51:29;98064.56;;;28.08;62.97
13765;BME280;6953;48.810;9.204;2023-07-29T10:53:56;98276.69;;;29.42;62.85
13765;BME280;6953;48.810;9.204;2023-07-29T10:56:33;98248.53;;;29.68;61.71
13765;BME280;6953;48.810;9.204;2023-07-29T11:01:58;98255.09;;;35.79;39.54
13765;BME280;6953;48.810;9.204;2023-07-29T11:04:28;98234.66;;;35.16;40.68
13765;BME280;6953;48.810;9.204;2023-07-29T11:07:18;98195.25;;;33.89;42.78
13765;BME280;6953;48.810;9.204;2023-07-29T11:12:48;98240.25;;;35.92;39.11
13765;BME280;6953;48.810;9.204;2023-07-29T11:15:20;98246.41;;;38.15;34.57
13765;BME280;6953;48.810;9.204;2023-07-29T11:17:59;98118.25;;;39.01;30.09
13765;BME280;6953;48.810;9.204;2023-07-29T11:20:32;98246.25;;;39.67;30.29
13765;BME280;6953;48.810;9.204;2023-07-29T11:22:59;98242.69;;;39.52;29.29
13765;BME280;6953;48.810;9.204;2023-07-29T11:25:27;98269.06;;;38.42;30.77
13765;BME280;6953;48.810;9.204;2023-07-29T11:27:54;98229.63;;;36.54;33.93
13765;BME280;6953;48.810;9.204;2023-07-29T11:30:20;98182.38;;;34.63;36.85
13765;BME280;6953;48.810;9.204;2023-07-29T11:32:46;98200.72;;;33.55;40.64
13765;BME280;6953;48.810;9.204;2023-07-29T11:35:13;98062.66;;;31.71;43.64
13765;BME280;6953;48.810;9.204;2023-07-29T11:37:42;98230.41;;;32.34;45.65
13765;BME280;6953;48.810;9.204;2023-07-29T11:40:08;98230.03;;;32.78;44.66
13765;BME280;6953;48.810;9.204;2023-07-29T11:42:37;98046.81;;;31.86;44.21
13765;BME280;6953;48.810;9.204;2023-07-29T11:45:03;98213.31;;;33.03;44.88
13765;BME280;6953;48.810;9.204;2023-07-29T11:47:31;98215.41;;;33.31;43.77
13765;BME280;6953;48.810;9.204;2023-07-29T11:49:59;98077.81;;;32.78;40.97
13765;BME280;6953;48.810;9.204;2023-07-29T11:52:27;98265.38;;;34.56;39.03
13765;BME280;6953;48.810;9.204;2023-07-29T11:54:54;98183.25;;;34.52;38.79
13765;BME280;6953;48.810;9.204;2023-07-29T11:57:19;98217.03;;;35.56;35.78
13765;BME280;6953;48.810;9.204;2023-07-29T11:59:46;98225.13;;;35.68;36.35
13765;BME280;6953;48.810;9.204;2023-07-29T12:02:15;98228.31;;;37.41;32.81
13765;BME280;6953;48.810;9.204;2023-07-29T12:04:41;98198.88;;;38.56;30.09
13765;BME280;6953;48.810;9.204;2023-07-29T12:07:08;98046.63;;;38.88;28.50
13765;BME280;6953;48.810;9.204;2023-07-29T12:09:35;98221.53;;;39.32;28.70
13765;BME280;6953;48.810;9.204;2023-07-29T12:12:02;98185.50;;;39.78;28.09
13765;BME280;6953;48.810;9.204;2023-07-29T12:14:29;98095.66;;;38.45;28.39
13765;BME280;6953;48.810;9.204;2023-07-29T12:16:54;98075.41;;;37.74;30.06
13765;BME280;6953;48.810;9.204;2023-07-29T12:19:19;98202.28;;;38.21;31.89
13765;BME280;6953;48.810;9.204;2023-07-29T12:21:47;98206.97;;;38.26;30.86
13765;BME280;6953;48.810;9.204;2023-07-29T12:24:13;98189.13;;;39.64;29.46
13765;BME280;6953;48.810;9.204;2023-07-29T12:26:40;98211.66;;;41.41;26.04
13765;BME280;6953;48.810;9.204;2023-07-29T12:29:13;98227.38;;;41.97;23.94
13765;BME280;6953;48.810;9.204;2023-07-29T12:31:39;98235.25;;;41.85;24.71
13765;BME280;6953;48.810;9.204;2023-07-29T12:34:04;98215.66;;;42.80;23.79
13765;BME280;6953;48.810;9.204;2023-07-29T12:36:47;98173.38;;;42.98;21.16
13765;BME280;6953;48.810;9.204;2023-07-29T12:39:16;98236.94;;;42.75;21.61
13765;BME280;6953;48.810;9.204;2023-07-29T12:41:42;98117.19;;;42.10;20.17
13765;BME280;6953;48.810;9.204;2023-07-29T12:44:08;98094.63;;;41.00;20.62
13765;BME280;6953;48.810;9.204;2023-07-29T12:46:33;98108.16;;;40.96;21.73
13765;BME280;6953;48.810;9.204;2023-07-29T12:48:58;98117.63;;;41.99;20.00
13765;BME280;6953;48.810;9.204;2023-07-29T12:51:24;98240.78;;;43.84;19.25
13765;BME280;6953;48.810;9.204;2023-07-29T12:53:49;98233.28;;;44.70;17.79
13765;BME280;6953;48.810;9.204;2023-07-29T12:56:14;98241.97;;;44.91;17.61
13765;BME280;6953;48.810;9.204;2023-07-29T12:58:39;98225.53;;;42.63;18.91
13765;BME280;6953;48.810;9.204;2023-07-29T13:01:05;98225.53;;;41.31;20.29
13765;BME280;6953;48.810;9.204;2023-07-29T13:03:30;98064.84;;;41.02;20.79
13765;BME280;6953;48.810;9.204;2023-07-29T13:05:55;98148.56;;;41.06;20.07
13765;BME280;6953;48.810;9.204;2023-07-29T13:08:21;98194.47;;;40.19;21.89
13765;BME280;6953;48.810;9.204;2023-07-29T13:10:48;98037.16;;;39.49;22.39
13765;BME280;6953;48.810;9.204;2023-07-29T13:13:13;98208.59;;;41.47;20.87